Portada
METAR-TAF:

METAR-TAF

Aeroports :

Aeroport Internacional de Fujairah

Fujairah, Emirats Àrabs Units

latitud: 25-06N, longitud: 056-20E, altitud: 28 m

Observació

L'informe es va fer fa 29 minuts, a les 22:00 UTC
Vent 6 kt del Nord-Oest
Temperatura 21°C
Humitat 53%
Pressió 1016 hPa
Visibilitat: 8000 m

METAR: OMFJ 132200Z 31006KT 8000 NSC 21/11 Q1016 A3001

Hora: 02:29 (22:29 UTC)

Pronòstic

L'informe es va fer fa 5 hores i 29 minuts, a les 17:00 UTC
Pronòstic vàlid del 13 a les 18 UTC al 14 a les 24 UTC
Vent 5 kt del Oest/Nord-Oest
Visibilitat: 8000 m
Temporalment
l' 13 a les 21 UTC al 14 a les 03 UTC
Visibilitat: 5000 m
calitja
Evolucionant progressivament
l' 14 a les 04 UTC al 16 a les 06 UTC
Vent 8 kt del Est
Evolucionant progressivament
l' 14 a les 14 UTC al 14 a les 16 UTC
Vent 3 kt amb direcció variable

TAF: OMFJ 131700Z 1318/1424 29005KT 8000 NSC TEMPO 1321/1403 5000 HZ BECMG 1404/1606 09008KT BECMG 1414/1416 VRB03KT

Observacions i pronòstics meteorològics de més de 4000 aeroports (METAR i TAF).

Les estacions disponibles són els punts grocs i vermells al mapa.

Posi el ratolí al punt desitjat per veure el nom de l'estació.

Feu clic per veure les observacions i els pronòstics meteorològics.

Per canviar el mapa: feu clic els botons verds amb una creu de color negre per apropar; al botó verd amb un guió per allunyar la imatge; o en les fletxes verdes per a mapes adjacents.


METAR-TAF: